KLUF/LUF METAR and TAF weather

Enter ICAO airport designator
Station Type Date Time Source
KLUF METAR 2022/01/26 13:58 UTC NOAA

KLUF 261358Z AUTO 02005KT 10SM CLR 06/M02 A3011 RMK AO2 SLP196 T00621024 $


Station Type Date Time Source
KLUF Decoded METAR 2022/01/26 13:58 UTC NOAA

Luke Air Force Base / Phoenix, AZ, United States (KLUF) 33-32N 112-23W 332M
Jan 26, 2022 - 08:58 AM EST / 2022.01.26 1358 UTC
Wind: from the NNE (020 degrees) at 6 MPH (5 KT):0
Visibility: 10 mile(s):0
Sky conditions: clear
Temperature: 43.2 F (6.2 C)
Dew Point: 27.7 F (-2.4 C)
Relative Humidity: 54%
Pressure (altimeter): 30.11 in. Hg (1019 hPa)
ob: KLUF 261358Z AUTO 02005KT 10SM CLR 06/M02 A3011 RMK AO2 SLP196 T00621024
cycle: 14

Station Type Date Time Source
KLUF TAF 2022/01/26 12:09 UTC NOAA

TAF KLUF 261200Z 2612/2718 VRB06KT 9999 FEW200 QNH3005INS
TEMPO 2618/2621 05012KT
BECMG 2621/2622 VRB06KT 9999 SCT200 QNH3003INS
BECMG 2706/2707 VRB06KT 9999 FEW150 SCT250 QNH3008INS TX19/2623Z TN05/2613Z

Example: see airport list